sensor_id;sensor_type;location;lat;lon;timestamp;pressure;altitude;pressure_sealevel;temperature;humidity
30302;BME280;17111;52.130;5.028;2023-02-20T00:00:10;102594.94;;;16.36;54.77
30302;BME280;17111;52.130;5.028;2023-02-20T00:02:41;102589.59;;;16.36;54.32
30302;BME280;17111;52.130;5.028;2023-02-20T00:05:08;102566.59;;;16.33;54.82
30302;BME280;17111;52.130;5.028;2023-02-20T00:07:37;102567.50;;;16.32;54.69
30302;BME280;17111;52.130;5.028;2023-02-20T00:10:04;102576.50;;;16.31;53.94
30302;BME280;17111;52.130;5.028;2023-02-20T00:12:31;102579.19;;;16.31;53.79
30302;BME280;17111;52.130;5.028;2023-02-20T00:14:58;102566.66;;;16.32;55.12
30302;BME280;17111;52.130;5.028;2023-02-20T00:17:24;102563.25;;;16.29;54.64
30302;BME280;17111;52.130;5.028;2023-02-20T00:19:51;102564.94;;;16.31;54.24
30302;BME280;17111;52.130;5.028;2023-02-20T00:22:20;102564.09;;;16.30;54.29
30302;BME280;17111;52.130;5.028;2023-02-20T00:24:48;102560.56;;;16.29;55.22
30302;BME280;17111;52.130;5.028;2023-02-20T00:27:14;102561.53;;;16.28;54.70
30302;BME280;17111;52.130;5.028;2023-02-20T00:29:43;102552.63;;;16.28;54.62
30302;BME280;17111;52.130;5.028;2023-02-20T00:32:10;102549.09;;;16.27;nan
30302;BME280;17111;52.130;5.028;2023-02-20T00:34:36;102549.09;;;16.27;54.84
30302;BME280;17111;52.130;5.028;2023-02-20T00:37:03;102539.25;;;16.28;54.45
30302;BME280;17111;52.130;5.028;2023-02-20T00:39:32;102542.13;;;16.25;54.49
30302;BME280;17111;52.130;5.028;2023-02-20T00:41:59;102547.50;;;16.25;54.38
30302;BME280;17111;52.130;5.028;2023-02-20T00:44:26;102542.22;;;16.23;54.37
30302;BME280;17111;52.130;5.028;2023-02-20T00:46:52;102544.03;;;16.23;55.26
30302;BME280;17111;52.130;5.028;2023-02-20T00:49:19;102545.88;;;16.22;54.18
30302;BME280;17111;52.130;5.028;2023-02-20T00:51:45;102542.34;;;16.22;54.97
30302;BME280;17111;52.130;5.028;2023-02-20T00:54:12;102540.63;;;16.21;54.36
30302;BME280;17111;52.130;5.028;2023-02-20T00:56:39;102533.53;;;16.20;55.04
30302;BME280;17111;52.130;5.028;2023-02-20T00:59:05;102532.59;;;16.21;54.83
30302;BME280;17111;52.130;5.028;2023-02-20T01:01:32;102539.78;;;16.20;54.21
30302;BME280;17111;52.130;5.028;2023-02-20T01:03:59;102534.41;;;16.20;54.67
30302;BME280;17111;52.130;5.028;2023-02-20T01:06:26;102530.88;;;16.20;55.36
30302;BME280;17111;52.130;5.028;2023-02-20T01:08:52;102517.59;;;16.18;54.63
30302;BME280;17111;52.130;5.028;2023-02-20T01:11:19;102510.53;;;16.17;54.79
30302;BME280;17111;52.130;5.028;2023-02-20T01:13:45;102487.31;;;16.18;55.02
30302;BME280;17111;52.130;5.028;2023-02-20T01:16:12;102479.41;;;16.16;54.48
30302;BME280;17111;52.130;5.028;2023-02-20T01:18:39;102476.72;;;16.16;54.89
30302;BME280;17111;52.130;5.028;2023-02-20T01:21:05;102463.44;;;16.15;54.73
30302;BME280;17111;52.130;5.028;2023-02-20T01:23:32;102453.59;;;16.15;54.38
30302;BME280;17111;52.130;5.028;2023-02-20T01:25:58;102455.53;;;16.13;54.44
30302;BME280;17111;52.130;5.028;2023-02-20T01:28:25;102471.56;;;16.13;55.11
30302;BME280;17111;52.130;5.028;2023-02-20T01:30:52;102473.41;;;16.13;55.02
30302;BME280;17111;52.130;5.028;2023-02-20T01:33:18;102464.50;;;16.12;54.45
30302;BME280;17111;52.130;5.028;2023-02-20T01:35:45;102457.44;;;16.11;54.40
30302;BME280;17111;52.130;5.028;2023-02-20T01:38:11;102452.06;;;16.11;54.16
30302;BME280;17111;52.130;5.028;2023-02-20T01:40:38;102457.44;;;16.11;55.03
30302;BME280;17111;52.130;5.028;2023-02-20T01:43:04;102449.53;;;16.10;55.20
30302;BME280;17111;52.130;5.028;2023-02-20T01:45:35;102455.84;;;16.09;54.86
30302;BME280;17111;52.130;5.028;2023-02-20T01:48:02;102441.59;;;16.08;54.94
30302;BME280;17111;52.130;5.028;2023-02-20T01:50:42;102441.81;;;16.05;54.82
30302;BME280;17111;52.130;5.028;2023-02-20T01:53:12;102436.44;;;16.05;54.37
30302;BME280;17111;52.130;5.028;2023-02-20T01:56:01;102441.88;;;16.03;54.56
30302;BME280;17111;52.130;5.028;2023-02-20T01:58:34;102445.44;;;16.04;55.03
30302;BME280;17111;52.130;5.028;2023-02-20T02:01:03;102435.59;;;16.04;54.58
30302;BME280;17111;52.130;5.028;2023-02-20T02:03:35;102436.44;;;16.05;55.41
30302;BME280;17111;52.130;5.028;2023-02-20T02:06:05;102431.00;;;16.07;54.99
30302;BME280;17111;52.130;5.028;2023-02-20T02:08:36;102438.28;;;16.04;54.56
30302;BME280;17111;52.130;5.028;2023-02-20T02:11:12;102439.97;;;16.06;55.21
30302;BME280;17111;52.130;5.028;2023-02-20T02:13:41;102431.84;;;16.07;55.40
30302;BME280;17111;52.130;5.028;2023-02-20T02:19:37;102432.81;;;16.06;55.73
30302;BME280;17111;52.130;5.028;2023-02-20T02:25:24;102421.25;;;16.06;54.77
30302;BME280;17111;52.130;5.028;2023-02-20T02:36:30;102413.91;;;16.09;54.61
30302;BME280;17111;52.130;5.028;2023-02-20T02:39:15;102412.28;;;16.07;54.74
30302;BME280;17111;52.130;5.028;2023-02-20T02:42:11;102403.28;;;16.08;55.66
30302;BME280;17111;52.130;5.028;2023-02-20T02:44:50;102402.41;;;16.07;55.71
30302;BME280;17111;52.130;5.028;2023-02-20T02:47:36;102387.34;;;16.06;54.95
30302;BME280;17111;52.130;5.028;2023-02-20T02:50:31;102395.25;;;16.08;56.00
30302;BME280;17111;52.130;5.028;2023-02-20T02:53:00;102396.03;;;16.10;55.03
30302;BME280;17111;52.130;5.028;2023-02-20T02:55:30;102405.88;;;16.09;55.21
30302;BME280;17111;52.130;5.028;2023-02-20T02:57:57;102404.03;;;16.10;55.61
30302;BME280;17111;52.130;5.028;2023-02-20T03:00:36;102406.72;;;16.10;56.09
30302;BME280;17111;52.130;5.028;2023-02-20T03:03:20;102398.69;;;16.10;55.73
30302;BME280;17111;52.130;5.028;2023-02-20T03:05:50;102389.63;;;16.12;55.46
30302;BME280;17111;52.130;5.028;2023-02-20T03:08:29;102396.75;;;16.12;55.71
30302;BME280;17111;52.130;5.028;2023-02-20T03:11:02;102390.56;;;16.11;55.82
30302;BME280;17111;52.130;5.028;2023-02-20T03:13:41;102395.06;;;16.11;55.19
30302;BME280;17111;52.130;5.028;2023-02-20T03:16:34;102391.41;;;16.12;54.93
30302;BME280;17111;52.130;5.028;2023-02-20T03:19:08;102393.22;;;16.11;55.58
30302;BME280;17111;52.130;5.028;2023-02-20T03:21:44;102388.75;;;16.12;55.96
30302;BME280;17111;52.130;5.028;2023-02-20T03:24:15;102386.06;;;16.12;55.93
30302;BME280;17111;52.130;5.028;2023-02-20T03:26:45;102383.31;;;16.13;55.77
30302;BME280;17111;52.130;5.028;2023-02-20T03:29:16;102386.81;;;16.14;55.37
30302;BME280;17111;52.130;5.028;2023-02-20T03:31:52;102385.88;;;16.15;55.99
30302;BME280;17111;52.130;5.028;2023-02-20T03:34:39;102393.03;;;16.14;55.11
30302;BME280;17111;52.130;5.028;2023-02-20T03:37:27;102384.03;;;16.15;56.08
30302;BME280;17111;52.130;5.028;2023-02-20T03:40:15;102377.84;;;16.15;56.10
30302;BME280;17111;52.130;5.028;2023-02-20T03:43:05;102374.19;;;16.16;56.19
30302;BME280;17111;52.130;5.028;2023-02-20T03:46:03;102376.00;;;16.15;55.52
30302;BME280;17111;52.130;5.028;2023-02-20T03:48:42;102372.41;;;16.16;56.42
30302;BME280;17111;52.130;5.028;2023-02-20T03:51:10;102367.06;;;16.16;56.19
30302;BME280;17111;52.130;5.028;2023-02-20T03:53:42;102375.06;;;16.16;55.30
30302;BME280;17111;52.130;5.028;2023-02-20T03:56:13;102361.72;;;16.16;55.94
30302;BME280;17111;52.130;5.028;2023-02-20T03:58:46;102361.72;;;16.16;56.05
30302;BME280;17111;52.130;5.028;2023-02-20T04:01:15;102359.03;;;16.16;56.07
30302;BME280;17111;52.130;5.028;2023-02-20T04:03:46;102355.47;;;16.16;55.52
30302;BME280;17111;52.130;5.028;2023-02-20T04:06:15;102354.53;;;16.17;55.79
30302;BME280;17111;52.130;5.028;2023-02-20T04:08:54;102352.78;;;16.16;55.25
30302;BME280;17111;52.130;5.028;2023-02-20T04:11:28;102351.84;;;16.17;55.37
30302;BME280;17111;52.130;5.028;2023-02-20T04:13:58;102344.69;;;16.17;56.40
30302;BME280;17111;52.130;5.028;2023-02-20T04:16:26;102358.06;;;16.17;56.26
30302;BME280;17111;52.130;5.028;2023-02-20T04:18:53;102359.75;;;16.18;55.53
30302;BME280;17111;52.130;5.028;2023-02-20T04:24:02;102349.06;;;16.18;55.48
30302;BME280;17111;52.130;5.028;2023-02-20T04:26:31;102345.41;;;16.19;55.81
30302;BME280;17111;52.130;5.028;2023-02-20T04:28:58;102353.44;;;16.19;55.47
30302;BME280;17111;52.130;5.028;2023-02-20T04:31:25;102351.63;;;16.20;55.61
30302;BME280;17111;52.130;5.028;2023-02-20T04:33:52;102352.50;;;16.20;55.75
30302;BME280;17111;52.130;5.028;2023-02-20T04:36:19;102356.03;;;16.21;55.63
30302;BME280;17111;52.130;5.028;2023-02-20T04:38:45;102355.19;;;16.20;56.28
30302;BME280;17111;52.130;5.028;2023-02-20T04:41:12;102351.53;;;16.21;56.23
30302;BME280;17111;52.130;5.028;2023-02-20T04:43:39;102351.53;;;16.21;56.00
30302;BME280;17111;52.130;5.028;2023-02-20T04:46:05;102355.91;;;16.22;55.87
30302;BME280;17111;52.130;5.028;2023-02-20T04:48:32;102347.91;;;16.22;56.08
30302;BME280;17111;52.130;5.028;2023-02-20T04:50:58;102356.78;;;16.23;55.38
30302;BME280;17111;52.130;5.028;2023-02-20T04:53:28;102350.56;;;16.22;56.37
30302;BME280;17111;52.130;5.028;2023-02-20T04:55:54;102349.72;;;16.22;56.10
30302;BME280;17111;52.130;5.028;2023-02-20T04:58:21;102349.59;;;16.23;56.16
30302;BME280;17111;52.130;5.028;2023-02-20T05:00:47;102346.91;;;16.23;55.66
30302;BME280;17111;52.130;5.028;2023-02-20T05:03:14;102346.06;;;16.23;55.70
30302;BME280;17111;52.130;5.028;2023-02-20T05:05:41;102354.00;;;16.24;56.06
30302;BME280;17111;52.130;5.028;2023-02-20T05:08:07;102340.72;;;16.23;56.22
30302;BME280;17111;52.130;5.028;2023-02-20T05:10:36;102337.19;;;16.22;55.79
30302;BME280;17111;52.130;5.028;2023-02-20T05:13:03;102344.38;;;16.22;55.19
30302;BME280;17111;52.130;5.028;2023-02-20T05:15:30;102342.53;;;16.22;56.29
30302;BME280;17111;52.130;5.028;2023-02-20T05:17:57;102347.91;;;16.22;56.09
30302;BME280;17111;52.130;5.028;2023-02-20T05:20:24;102351.41;;;16.23;55.85
30302;BME280;17111;52.130;5.028;2023-02-20T05:23:10;102354.09;;;16.23;55.60
30302;BME280;17111;52.130;5.028;2023-02-20T05:25:37;102363.94;;;16.22;55.76
30302;BME280;17111;52.130;5.028;2023-02-20T05:28:04;102357.63;;;16.23;55.68
30302;BME280;17111;52.130;5.028;2023-02-20T05:30:30;102369.28;;;16.22;55.62
30302;BME280;17111;52.130;5.028;2023-02-20T05:32:57;102365.66;;;16.23;55.96
30302;BME280;17111;52.130;5.028;2023-02-20T05:35:23;102360.28;;;16.23;56.24
30302;BME280;17111;52.130;5.028;2023-02-20T05:37:50;102360.28;;;16.23;55.89
30302;BME280;17111;52.130;5.028;2023-02-20T05:40:16;102357.63;;;16.23;55.92
30302;BME280;17111;52.130;5.028;2023-02-20T05:42:43;102354.94;;;16.23;55.99
30302;BME280;17111;52.130;5.028;2023-02-20T05:45:09;102347.78;;;16.24;55.77
30302;BME280;17111;52.130;5.028;2023-02-20T05:47:37;102352.19;;;16.25;55.31
30302;BME280;17111;52.130;5.028;2023-02-20T05:50:04;102343.31;;;16.24;55.44
30302;BME280;17111;52.130;5.028;2023-02-20T05:52:31;102339.75;;;16.24;55.79
30302;BME280;17111;52.130;5.028;2023-02-20T05:54:57;102341.50;;;16.25;55.24
30302;BME280;17111;52.130;5.028;2023-02-20T05:57:24;102335.28;;;16.24;55.80
30302;BME280;17111;52.130;5.028;2023-02-20T05:59:50;102340.63;;;16.24;55.42
30302;BME280;17111;52.130;5.028;2023-02-20T06:02:17;102340.63;;;16.24;54.89
30302;BME280;17111;52.130;5.028;2023-02-20T06:04:43;102341.50;;;16.25;55.92
30302;BME280;17111;52.130;5.028;2023-02-20T06:07:10;102337.06;;;16.24;55.47
30302;BME280;17111;52.130;5.028;2023-02-20T06:09:40;102344.25;;;16.23;55.44
30302;BME280;17111;52.130;5.028;2023-02-20T06:12:07;102346.00;;;16.24;55.42
30302;BME280;17111;52.130;5.028;2023-02-20T06:14:33;102348.66;;;16.24;55.59
30302;BME280;17111;52.130;5.028;2023-02-20T06:17:00;102344.25;;;16.23;55.59
30302;BME280;17111;52.130;5.028;2023-02-20T06:19:26;102340.63;;;16.24;55.74
30302;BME280;17111;52.130;5.028;2023-02-20T06:21:53;102338.91;;;16.23;55.54
30302;BME280;17111;52.130;5.028;2023-02-20T06:24:20;102347.78;;;16.24;55.56
30302;BME280;17111;52.130;5.028;2023-02-20T06:26:47;102343.41;;;16.23;54.78
30302;BME280;17111;52.130;5.028;2023-02-20T06:29:15;102333.53;;;16.23;55.13
30302;BME280;17111;52.130;5.028;2023-02-20T06:31:42;102341.56;;;16.23;55.57
30302;BME280;17111;52.130;5.028;2023-02-20T06:34:09;102346.00;;;16.24;54.75
30302;BME280;17111;52.130;5.028;2023-02-20T06:36:38;102346.06;;;16.23;55.26
30302;BME280;17111;52.130;5.028;2023-02-20T06:39:06;102338.03;;;16.23;55.75
30302;BME280;17111;52.130;5.028;2023-02-20T06:41:33;102338.91;;;16.23;55.22
30302;BME280;17111;52.130;5.028;2023-02-20T06:44:00;102344.25;;;16.23;55.20
30302;BME280;17111;52.130;5.028;2023-02-20T06:46:26;102343.41;;;16.23;54.91
30302;BME280;17111;52.130;5.028;2023-02-20T06:48:55;102347.03;;;16.22;55.34
30302;BME280;17111;52.130;5.028;2023-02-20T06:51:25;102353.25;;;16.22;55.13
30302;BME280;17111;52.130;5.028;2023-02-20T06:53:52;102353.25;;;16.22;55.05
30302;BME280;17111;52.130;5.028;2023-02-20T06:56:22;102351.41;;;16.23;55.61
30302;BME280;17111;52.130;5.028;2023-02-20T06:58:51;102348.75;;;16.23;55.38
30302;BME280;17111;52.130;5.028;2023-02-20T07:01:18;102357.75;;;16.22;54.92
30302;BME280;17111;52.130;5.028;2023-02-20T07:03:46;102354.09;;;16.23;55.35
30302;BME280;17111;52.130;5.028;2023-02-20T07:06:16;102346.06;;;16.23;54.98
30302;BME280;17111;52.130;5.028;2023-02-20T07:08:43;102352.41;;;16.22;55.72
30302;BME280;17111;52.130;5.028;2023-02-20T07:11:10;102340.72;;;16.23;54.89
30302;BME280;17111;52.130;5.028;2023-02-20T07:13:37;102342.53;;;16.22;55.39
30302;BME280;17111;52.130;5.028;2023-02-20T07:16:04;102353.25;;;16.22;55.02
30302;BME280;17111;52.130;5.028;2023-02-20T07:18:30;102347.91;;;16.22;55.73
30302;BME280;17111;52.130;5.028;2023-02-20T07:20:57;102358.59;;;16.22;54.98
30302;BME280;17111;52.130;5.028;2023-02-20T07:23:23;102362.97;;;16.23;55.75
30302;BME280;17111;52.130;5.028;2023-02-20T07:25:50;102349.59;;;16.23;54.80
30302;BME280;17111;52.130;5.028;2023-02-20T07:28:17;102354.94;;;16.23;54.98
30302;BME280;17111;52.130;5.028;2023-02-20T07:30:45;102354.94;;;16.23;55.08
30302;BME280;17111;52.130;5.028;2023-02-20T07:33:15;102345.09;;;16.24;54.78
30302;BME280;17111;52.130;5.028;2023-02-20T07:35:42;102354.00;;;16.24;54.78
30302;BME280;17111;52.130;5.028;2023-02-20T07:38:09;102348.75;;;16.23;55.49
30302;BME280;17111;52.130;5.028;2023-02-20T07:40:36;102349.59;;;16.23;55.47
30302;BME280;17111;52.130;5.028;2023-02-20T07:43:05;102355.81;;;16.24;55.54
30302;BME280;17111;52.130;5.028;2023-02-20T07:45:32;102354.00;;;16.24;54.56
30302;BME280;17111;52.130;5.028;2023-02-20T07:47:59;102358.38;;;16.25;54.56
30302;BME280;17111;52.130;5.028;2023-02-20T07:50:25;102358.38;;;16.25;55.10
30302;BME280;17111;52.130;5.028;2023-02-20T07:52:52;102357.53;;;16.25;55.45
30302;BME280;17111;52.130;5.028;2023-02-20T07:55:19;102353.91;;;16.26;54.56
30302;BME280;17111;52.130;5.028;2023-02-20T07:57:47;102353.03;;;16.25;55.02
30302;BME280;17111;52.130;5.028;2023-02-20T08:00:16;102361.06;;;16.25;54.65
30302;BME280;17111;52.130;5.028;2023-02-20T08:02:43;102361.91;;;16.26;55.26
30302;BME280;17111;52.130;5.028;2023-02-20T08:05:10;102357.41;;;16.26;54.96
30302;BME280;17111;52.130;5.028;2023-02-20T08:07:37;102359.13;;;16.27;55.62
30302;BME280;17111;52.130;5.028;2023-02-20T08:10:04;102360.94;;;16.27;55.38
30302;BME280;17111;52.130;5.028;2023-02-20T08:12:31;102337.72;;;16.27;54.92
30302;BME280;17111;52.130;5.028;2023-02-20T08:14:57;102358.19;;;16.28;55.44
30302;BME280;17111;52.130;5.028;2023-02-20T08:17:24;102353.69;;;16.29;55.20
30302;BME280;17111;52.130;5.028;2023-02-20T08:20:03;102355.50;;;16.28;55.78
30302;BME280;17111;52.130;5.028;2023-02-20T08:22:29;102370.59;;;16.29;55.48
30302;BME280;17111;52.130;5.028;2023-02-20T08:25:07;102357.09;;;16.31;55.20
30302;BME280;17111;52.130;5.028;2023-02-20T08:27:33;102365.97;;;16.32;54.90
30302;BME280;17111;52.130;5.028;2023-02-20T08:30:07;102355.28;;;16.32;55.79
30302;BME280;17111;52.130;5.028;2023-02-20T08:32:33;102365.97;;;16.32;55.01
30302;BME280;17111;52.130;5.028;2023-02-20T08:35:00;102362.38;;;16.33;55.12
30302;BME280;17111;52.130;5.028;2023-02-20T08:37:27;102357.00;;;16.33;55.59
30302;BME280;17111;52.130;5.028;2023-02-20T08:39:54;102355.19;;;16.33;55.76
30302;BME280;17111;52.130;5.028;2023-02-20T08:42:20;102353.38;;;16.34;54.74
30302;BME280;17111;52.130;5.028;2023-02-20T08:44:47;102358.72;;;16.34;54.54
30302;BME280;17111;52.130;5.028;2023-02-20T08:47:13;102354.22;;;16.34;54.71
30302;BME280;17111;52.130;5.028;2023-02-20T08:49:40;102362.38;;;16.33;55.62
30302;BME280;17111;52.130;5.028;2023-02-20T08:52:06;102354.22;;;16.34;55.20
30302;BME280;17111;52.130;5.028;2023-02-20T08:54:33;102356.03;;;16.34;54.67
30302;BME280;17111;52.130;5.028;2023-02-20T08:57:00;102366.75;;;16.34;54.85
30302;BME280;17111;52.130;5.028;2023-02-20T08:59:30;102354.22;;;16.34;55.29
30302;BME280;17111;52.130;5.028;2023-02-20T09:01:57;102348.03;;;16.34;55.09
30302;BME280;17111;52.130;5.028;2023-02-20T09:04:23;102352.41;;;16.35;55.27
30302;BME280;17111;52.130;5.028;2023-02-20T09:06:50;102351.53;;;16.34;54.50
30302;BME280;17111;52.130;5.028;2023-02-20T09:09:17;102335.50;;;16.34;54.81
30302;BME280;17111;52.130;5.028;2023-02-20T09:11:43;102331.84;;;16.35;55.20
30302;BME280;17111;52.130;5.028;2023-02-20T09:14:10;102337.31;;;16.34;54.48
30302;BME280;17111;52.130;5.028;2023-02-20T09:16:37;102345.34;;;16.34;55.12
30302;BME280;17111;52.130;5.028;2023-02-20T09:19:08;102329.28;;;16.34;54.62
30302;BME280;17111;52.130;5.028;2023-02-20T09:21:35;102331.84;;;16.35;55.02
30302;BME280;17111;52.130;5.028;2023-02-20T09:24:04;102339.03;;;16.35;54.85
30302;BME280;17111;52.130;5.028;2023-02-20T09:26:30;102349.72;;;16.35;55.13
30302;BME280;17111;52.130;5.028;2023-02-20T09:28:57;102339.78;;;16.37;54.50
30302;BME280;17111;52.130;5.028;2023-02-20T09:31:23;102334.44;;;16.37;54.98
30302;BME280;17111;52.130;5.028;2023-02-20T09:33:50;102333.59;;;16.36;54.97
30302;BME280;17111;52.130;5.028;2023-02-20T09:36:17;102323.72;;;16.37;54.64
30302;BME280;17111;52.130;5.028;2023-02-20T09:38:43;102321.06;;;16.37;54.43
30302;BME280;17111;52.130;5.028;2023-02-20T09:41:43;102338.06;;;16.36;54.81
30302;BME280;17111;52.130;5.028;2023-02-20T09:44:26;102343.31;;;16.37;54.99
30302;BME280;17111;52.130;5.028;2023-02-20T09:47:07;102346.84;;;16.38;54.69
30302;BME280;17111;52.130;5.028;2023-02-20T09:49:43;102358.41;;;16.38;55.01
30302;BME280;17111;52.130;5.028;2023-02-20T09:52:12;102349.53;;;16.38;54.40
30302;BME280;17111;52.130;5.028;2023-02-20T09:54:46;102353.06;;;16.38;54.85
30302;BME280;17111;52.130;5.028;2023-02-20T09:57:21;102360.09;;;16.39;55.37
30302;BME280;17111;52.130;5.028;2023-02-20T09:59:52;102362.78;;;16.39;55.42
30302;BME280;17111;52.130;5.028;2023-02-20T10:02:33;102360.22;;;16.38;55.76
30302;BME280;17111;52.130;5.028;2023-02-20T10:05:06;102353.91;;;16.39;55.62
30302;BME280;17111;52.130;5.028;2023-02-20T10:07:36;102360.97;;;16.40;55.39
30302;BME280;17111;52.130;5.028;2023-02-20T10:10:32;102361.06;;;16.38;55.81
30302;BME280;17111;52.130;5.028;2023-02-20T10:16:11;102343.19;;;16.39;55.37
30302;BME280;17111;52.130;5.028;2023-02-20T10:19:01;102339.56;;;16.40;55.34
30302;BME280;17111;52.130;5.028;2023-02-20T10:21:43;102347.50;;;16.41;55.78
30302;BME280;17111;52.130;5.028;2023-02-20T10:24:22;102342.13;;;16.41;55.09
30302;BME280;17111;52.130;5.028;2023-02-20T10:26:58;102347.50;;;16.41;55.51
30302;BME280;17111;52.130;5.028;2023-02-20T10:29:30;102350.06;;;16.43;55.65
30302;BME280;17111;52.130;5.028;2023-02-20T10:32:06;102337.63;;;16.42;55.66
30302;BME280;17111;52.130;5.028;2023-02-20T10:34:40;102324.25;;;16.42;54.83
30302;BME280;17111;52.130;5.028;2023-02-20T10:37:14;102330.47;;;16.42;55.48
30302;BME280;17111;52.130;5.028;2023-02-20T10:39:49;102346.53;;;16.42;56.08
30302;BME280;17111;52.130;5.028;2023-02-20T10:42:29;102350.06;;;16.43;55.11
30302;BME280;17111;52.130;5.028;2023-02-20T10:45:10;102329.50;;;16.43;54.95
30302;BME280;17111;52.130;5.028;2023-02-20T10:47:49;102337.53;;;16.43;55.12
30302;BME280;17111;52.130;5.028;2023-02-20T10:56:09;102351.75;;;16.44;55.53
30302;BME280;17111;52.130;5.028;2023-02-20T10:59:27;102328.63;;;16.43;55.84
30302;BME280;17111;52.130;5.028;2023-02-20T11:01:58;102325.88;;;16.44;55.71
30302;BME280;17111;52.130;5.028;2023-02-20T11:04:31;102333.91;;;16.44;55.73
30302;BME280;17111;52.130;5.028;2023-02-20T11:07:09;102340.13;;;16.45;54.99
30302;BME280;17111;52.130;5.028;2023-02-20T11:09:37;102332.94;;;16.45;55.33
30302;BME280;17111;52.130;5.028;2023-02-20T11:12:05;102344.50;;;16.46;54.87
30302;BME280;17111;52.130;5.028;2023-02-20T11:14:40;102347.28;;;16.44;55.27
30302;BME280;17111;52.130;5.028;2023-02-20T11:19:42;102340.00;;;16.46;54.80
30302;BME280;17111;52.130;5.028;2023-02-20T11:22:09;102329.28;;;16.46;54.84
30302;BME280;17111;52.130;5.028;2023-02-20T11:24:41;102314.19;;;16.45;55.21
30302;BME280;17111;52.130;5.028;2023-02-20T11:27:09;102308.84;;;16.45;54.98
30302;BME280;17111;52.130;5.028;2023-02-20T11:29:50;102293.66;;;16.46;54.52
30302;BME280;17111;52.130;5.028;2023-02-20T11:34:45;102285.63;;;16.46;54.50
30302;BME280;17111;52.130;5.028;2023-02-20T11:37:13;102308.72;;;16.47;55.31
30302;BME280;17111;52.130;5.028;2023-02-20T11:39:45;102324.78;;;16.47;55.00
30302;BME280;17111;52.130;5.028;2023-02-20T11:42:17;102334.63;;;16.46;54.54
30302;BME280;17111;52.130;5.028;2023-02-20T11:45:45;102324.78;;;16.47;54.58
30302;BME280;17111;52.130;5.028;2023-02-20T11:48:14;102329.16;;;16.48;54.96
30302;BME280;17111;52.130;5.028;2023-02-20T11:50:45;102314.72;;;16.50;55.29
30302;BME280;17111;52.130;5.028;2023-02-20T11:53:22;102287.09;;;16.50;54.90
30302;BME280;17111;52.130;5.028;2023-02-20T11:56:08;102289.78;;;16.50;55.00
30302;BME280;17111;52.130;5.028;2023-02-20T11:58:36;102300.38;;;16.51;55.06
30302;BME280;17111;52.130;5.028;2023-02-20T12:01:03;102301.22;;;16.52;54.92
30302;BME280;17111;52.130;5.028;2023-02-20T12:03:32;102318.16;;;16.52;54.98
30302;BME280;17111;52.130;5.028;2023-02-20T12:06:26;102327.06;;;16.53;54.83
30302;BME280;17111;52.130;5.028;2023-02-20T12:08:55;102319.97;;;16.52;54.86
30302;BME280;17111;52.130;5.028;2023-02-20T12:11:26;102317.19;;;16.53;54.32
30302;BME280;17111;52.130;5.028;2023-02-20T12:13:55;102324.38;;;16.53;54.59
30302;BME280;17111;52.130;5.028;2023-02-20T12:19:03;102324.38;;;16.53;54.58
30302;BME280;17111;52.130;5.028;2023-02-20T12:27:51;102297.50;;;16.54;54.33
30302;BME280;17111;52.130;5.028;2023-02-20T12:36:22;102327.78;;;16.55;54.93
30302;BME280;17111;52.130;5.028;2023-02-20T12:39:05;102311.72;;;16.55;54.45
30302;BME280;17111;52.130;5.028;2023-02-20T13:01:02;102283.03;;;16.57;54.83
30302;BME280;17111;52.130;5.028;2023-02-20T13:03:38;102280.25;;;16.59;54.74
30302;BME280;17111;52.130;5.028;2023-02-20T13:06:07;102287.31;;;16.60;54.64
30302;BME280;17111;52.130;5.028;2023-02-20T13:11:32;102281.94;;;16.60;54.79
30302;BME280;17111;52.130;5.028;2023-02-20T13:16:43;102281.84;;;16.61;55.05
30302;BME280;17111;52.130;5.028;2023-02-20T13:19:41;102287.22;;;16.61;54.75
30302;BME280;17111;52.130;5.028;2023-02-20T13:22:11;102290.75;;;16.62;54.27
30302;BME280;17111;52.130;5.028;2023-02-20T13:24:39;102292.56;;;16.61;54.40
30302;BME280;17111;52.130;5.028;2023-02-20T13:27:08;102289.88;;;16.61;55.15
30302;BME280;17111;52.130;5.028;2023-02-20T13:30:00;102274.78;;;16.60;54.79
30302;BME280;17111;52.130;5.028;2023-02-20T13:32:30;102266.66;;;16.62;54.91
30302;BME280;17111;52.130;5.028;2023-02-20T13:35:33;102264.94;;;16.61;54.60
30302;BME280;17111;52.130;5.028;2023-02-20T13:38:17;102256.91;;;16.61;54.41
30302;BME280;17111;52.130;5.028;2023-02-20T13:45:49;102242.56;;;16.62;54.66
30302;BME280;17111;52.130;5.028;2023-02-20T13:53:53;102229.25;;;16.60;54.81
30302;BME280;17111;52.130;5.028;2023-02-20T13:56:28;102225.66;;;16.61;55.02
30302;BME280;17111;52.130;5.028;2023-02-20T13:59:09;102228.19;;;16.63;54.95
30302;BME280;17111;52.130;5.028;2023-02-20T14:02:14;102238.28;;;16.59;54.31
30302;BME280;17111;52.130;5.028;2023-02-20T14:05:01;102236.34;;;16.61;55.04
30302;BME280;17111;52.130;5.028;2023-02-20T14:07:35;102226.50;;;16.62;54.47
30302;BME280;17111;52.130;5.028;2023-02-20T14:10:15;102220.28;;;16.61;54.42
30302;BME280;17111;52.130;5.028;2023-02-20T14:12:44;102215.78;;;16.62;54.26
30302;BME280;17111;52.130;5.028;2023-02-20T14:15:12;102224.78;;;16.61;54.63
30302;BME280;17111;52.130;5.028;2023-02-20T14:17:41;102212.25;;;16.61;54.71
30302;BME280;17111;52.130;5.028;2023-02-20T14:20:18;102209.69;;;16.60;54.79
30302;BME280;17111;52.130;5.028;2023-02-20T14:22:45;102217.63;;;16.61;54.30
30302;BME280;17111;52.130;5.028;2023-02-20T14:27:45;102206.91;;;16.61;54.99
30302;BME280;17111;52.130;5.028;2023-02-20T14:30:20;102213.22;;;16.60;55.10
30302;BME280;17111;52.130;5.028;2023-02-20T14:32:50;102214.09;;;16.61;54.19
30302;BME280;17111;52.130;5.028;2023-02-20T14:38:14;102214.94;;;16.61;54.86